CheckWX is a tool to help pilots better visualize weather data.  It is not intended as a substitute for an official pre-flight weather briefing.

02:37:25 UTC

KSKF TAF
Kelly Field Airport
San Antonio, Texas, USA
TAF KSKF 160200Z 1602/1708 14009KT 9999 FEW050 SCT250 QNH2984INS BECMG 1609/1610 14006KT 9999 BKN012 QNH2992INS BECMG 1613/1614 16010KT 9999 FEW050 QNH2987INS BECMG 1700/1701 14014G20KT 9999 SCT250 QNH2989INS TX37/1621Z TN25/1612Z

Jul-16@
02:00 UTC

Jul-16 @ 02:00 UTC

Jul-16@
09:00 UTC

Jul-16 @ 09:00 UTC

TAF KSKF 160200Z 1602/1708 14009KT 9999 FEW050 SCT250 QNH2984INS
Wind
  • 140° at 9 KTS
Cloud Levels
  • Few at 5,000' AGL
  • Scattered at 25,000' AGL

Jul-16@
09:00 UTC

Jul-16 @ 09:00 UTC

Jul-16@
13:00 UTC

Jul-16 @ 13:00 UTC

BECMG 1609/1610 14006KT 9999 BKN012 QNH2992INS

Becoming

Becoming Conditions expected by Tue, Jul 16, 2019 @ 10:00 UTC

Wind
  • 140° at 6 KTS
Cloud Levels
  • Broken at 1,200' AGL

Jul-16@
13:00 UTC

Jul-16 @ 13:00 UTC

Jul-17@
00:00 UTC

Jul-17 @ 00:00 UTC

BECMG 1613/1614 16010KT 9999 FEW050 QNH2987INS

Becoming

Becoming Conditions expected by Tue, Jul 16, 2019 @ 14:00 UTC

Wind
  • 160° at 10 KTS
Cloud Levels
  • Few at 5,000' AGL

Jul-17@
00:00 UTC

Jul-17 @ 00:00 UTC

Jul-17@
08:00 UTC

Jul-17 @ 08:00 UTC

BECMG 1700/1701 14014G20KT 9999 SCT250 QNH2989INS TX37/1621Z TN25/1612Z

Becoming

Becoming Conditions expected by Wed, Jul 17, 2019 @ 01:00 UTC

Wind
  • 140° at 14 KTS
  • {Gusting to 20 KTS
Cloud Levels
  • Scattered at 25,000' AGL